GMMI

Mogador Airport

Essaouira, Morocco
METAR GMMI 121000Z 06004KT 8000 NSC 16/13 Q1024 NOSIG
Observed Flight Rules
Dec-12 @ 10:00 UTC (21 minutes ago) Marginal Visual Flight Rules
Wind Visibility Clouds
60° at 4 knots 7,998 meters
  • Clear skies
Temperatures Readings
Current 16°C / 61°F
Dewpoint 13°C / 55°F
Humidity 83%
Altimeter 30.24" Hg
Pressure 1024 hPa
Elevation 8
METAR GMMI 121000Z 06004KT 8000 NSC 16/13 Q1024 NOSIG
Observed Flight Rules
Dec-12 @ 10:00 UTC
(21 minutes ago)
MVFR
Wind Visibility
60° at 4 knots 7,998 meters
Clouds
  • Clear skies
Temperature Dewpoint
16°C / 61°F 13°C / 55°F
Humidity Altimeter Pressure
83% 30.24" Hg 1024 hPa